createdAt,value
2023-04-09T00:00:11.747Z,14.17
2023-04-09T00:02:33.272Z,14.67
2023-04-09T00:04:54.528Z,14.87
2023-04-09T00:07:15.571Z,15.03
2023-04-09T00:09:38.443Z,15.40
2023-04-09T00:12:03.721Z,14.03
2023-04-09T00:14:24.945Z,15.80
2023-04-09T00:16:46.246Z,15.70
2023-04-09T00:19:09.386Z,15.83
2023-04-09T00:21:30.906Z,15.40
2023-04-09T00:23:52.273Z,15.23
2023-04-09T00:26:16.033Z,14.67
2023-04-09T00:28:37.533Z,14.53
2023-04-09T00:30:59.059Z,16.27
2023-04-09T00:33:20.486Z,15.87
2023-04-09T00:35:41.505Z,14.47
2023-04-09T00:38:03.528Z,14.93
2023-04-09T00:40:24.863Z,15.07
2023-04-09T00:42:51.378Z,14.43
2023-04-09T00:45:12.962Z,15.80
2023-04-09T00:47:35.368Z,14.97
2023-04-09T00:49:56.488Z,15.77
2023-04-09T00:52:20.216Z,15.50
2023-04-09T00:54:41.641Z,15.53
2023-04-09T00:57:03.336Z,15.30
2023-04-09T00:59:27.182Z,14.40
2023-04-09T01:01:48.690Z,14.97
2023-04-09T01:04:09.902Z,15.67
2023-04-09T01:06:37.729Z,16.87
2023-04-09T01:09:03.366Z,16.27
2023-04-09T01:11:30.300Z,16.23
2023-04-09T01:13:56.662Z,17.27
2023-04-09T01:16:20.236Z,14.93
2023-04-09T01:18:44.300Z,15.63
2023-04-09T01:21:07.413Z,15.60
2023-04-09T01:23:33.664Z,15.57
2023-04-09T01:26:02.825Z,14.90
2023-04-09T01:28:28.745Z,15.53
2023-04-09T01:30:50.860Z,14.73
2023-04-09T01:33:13.137Z,14.87
2023-04-09T01:35:34.731Z,15.33
2023-04-09T01:37:55.953Z,15.30
2023-04-09T01:40:17.389Z,15.40
2023-04-09T01:42:41.773Z,16.13
2023-04-09T01:45:05.341Z,16.53
2023-04-09T01:47:27.238Z,15.90
2023-04-09T01:49:48.712Z,14.87
2023-04-09T01:52:11.661Z,15.73
2023-04-09T01:54:33.127Z,15.47
2023-04-09T01:56:54.255Z,15.13
2023-04-09T01:59:15.818Z,14.83
2023-04-09T02:01:40.221Z,15.00
2023-04-09T02:04:03.937Z,16.20
2023-04-09T02:06:27.816Z,16.67
2023-04-09T02:08:50.141Z,15.57
2023-04-09T02:11:12.637Z,15.53
2023-04-09T02:13:34.725Z,16.70
2023-04-09T02:15:57.605Z,17.10
2023-04-09T02:18:23.943Z,15.57
2023-04-09T02:20:45.958Z,16.20
2023-04-09T02:23:07.319Z,17.10
2023-04-09T02:25:29.167Z,16.70
2023-04-09T02:27:50.975Z,16.50
2023-04-09T02:30:12.674Z,16.20
2023-04-09T02:32:34.114Z,16.03
2023-04-09T02:34:56.724Z,16.33
2023-04-09T02:37:18.327Z,15.63
2023-04-09T02:39:39.720Z,15.63
2023-04-09T02:42:01.352Z,15.57
2023-04-09T02:44:22.997Z,16.83
2023-04-09T02:46:44.906Z,17.53
2023-04-09T02:49:06.090Z,16.17
2023-04-09T02:51:34.905Z,15.83
2023-04-09T02:53:55.932Z,15.53
2023-04-09T02:56:17.239Z,15.70
2023-04-09T02:58:39.113Z,15.27
2023-04-09T03:01:00.449Z,14.17
2023-04-09T03:03:21.823Z,14.90
2023-04-09T03:05:44.482Z,15.20
2023-04-09T03:08:06.844Z,14.00
2023-04-09T03:10:28.320Z,15.23
2023-04-09T03:12:49.890Z,14.70
2023-04-09T03:15:11.295Z,15.23
2023-04-09T03:17:32.491Z,15.40
2023-04-09T03:19:54.330Z,15.20
2023-04-09T03:22:15.685Z,16.30
2023-04-09T03:24:38.630Z,16.47
2023-04-09T03:26:59.657Z,15.83
2023-04-09T03:29:20.934Z,14.63
2023-04-09T03:31:42.244Z,15.33
2023-04-09T03:34:04.781Z,14.30
2023-04-09T03:36:28.003Z,15.27
2023-04-09T03:38:49.157Z,15.17
2023-04-09T03:41:12.037Z,15.57
2023-04-09T03:43:33.498Z,15.40
2023-04-09T03:45:56.543Z,16.57
2023-04-09T03:48:17.473Z,16.10
2023-04-09T03:50:39.284Z,16.87
2023-04-09T03:53:00.986Z,16.63
2023-04-09T03:55:22.031Z,16.10
2023-04-09T03:57:44.714Z,14.80
2023-04-09T04:00:06.560Z,15.40
2023-04-09T04:02:30.512Z,14.73
2023-04-09T04:04:52.704Z,13.90
2023-04-09T04:07:14.092Z,14.90
2023-04-09T04:09:35.517Z,15.43
2023-04-09T04:11:58.975Z,14.43
2023-04-09T04:14:21.867Z,14.53
2023-04-09T04:16:43.297Z,15.97
2023-04-09T04:19:04.627Z,15.20
2023-04-09T04:21:25.701Z,15.67
2023-04-09T04:23:47.035Z,15.83
2023-04-09T04:26:10.180Z,16.43
2023-04-09T04:28:31.748Z,16.20
2023-04-09T04:30:54.651Z,15.70
2023-04-09T04:33:16.313Z,16.30
2023-04-09T04:35:37.959Z,15.67
2023-04-09T04:37:59.082Z,15.53
2023-04-09T04:40:20.295Z,15.40
2023-04-09T04:42:41.591Z,15.33
2023-04-09T04:45:02.927Z,16.10
2023-04-09T04:47:25.770Z,15.90
2023-04-09T04:49:46.870Z,16.37
2023-04-09T04:52:09.003Z,16.30
2023-04-09T04:54:30.449Z,14.97
2023-04-09T04:56:51.574Z,14.97
2023-04-09T04:59:12.918Z,15.47
2023-04-09T05:01:34.430Z,14.43
2023-04-09T05:03:57.099Z,14.67
2023-04-09T05:06:18.422Z,15.37
2023-04-09T05:08:40.280Z,16.07
2023-04-09T05:11:01.660Z,15.27
2023-04-09T05:13:22.952Z,15.13
2023-04-09T05:15:44.810Z,15.33
2023-04-09T05:18:09.249Z,14.97
2023-04-09T05:20:31.893Z,15.00
2023-04-09T05:22:53.173Z,14.90
2023-04-09T05:25:16.245Z,18.00
2023-04-09T05:27:37.792Z,16.43
2023-04-09T05:30:00.766Z,15.60
2023-04-09T05:32:22.122Z,15.53
2023-04-09T05:34:43.697Z,15.10
2023-04-09T05:37:06.430Z,14.67
2023-04-09T05:39:27.471Z,14.97
2023-04-09T05:41:48.906Z,14.43
2023-04-09T05:44:10.100Z,13.53
2023-04-09T05:46:31.569Z,14.37
2023-04-09T05:48:52.908Z,15.40
2023-04-09T05:51:15.526Z,15.10
2023-04-09T05:53:37.963Z,14.23
2023-04-09T05:55:59.554Z,15.13
2023-04-09T05:58:22.072Z,15.37
2023-04-09T06:00:43.487Z,14.77
2023-04-09T06:03:05.607Z,15.47
2023-04-09T06:05:26.937Z,14.87
2023-04-09T06:07:48.326Z,14.60
2023-04-09T06:10:11.360Z,14.83
2023-04-09T06:12:32.583Z,14.87
2023-04-09T06:14:53.965Z,15.30
2023-04-09T06:17:15.473Z,14.83
2023-04-09T06:19:36.642Z,14.33
2023-04-09T06:21:58.079Z,14.37
2023-04-09T06:24:19.314Z,14.67
2023-04-09T06:26:41.948Z,14.23
2023-04-09T06:29:03.463Z,14.13
2023-04-09T06:31:28.093Z,14.17
2023-04-09T06:33:49.846Z,15.33
2023-04-09T06:36:11.857Z,14.93
2023-04-09T06:38:33.123Z,15.17
2023-04-09T06:40:56.854Z,14.10
2023-04-09T06:43:19.394Z,15.07
2023-04-09T06:45:42.634Z,15.10
2023-04-09T06:48:04.010Z,14.13
2023-04-09T06:50:25.607Z,14.40
2023-04-09T06:52:47.202Z,14.53
2023-04-09T06:55:08.995Z,14.23
2023-04-09T06:57:30.173Z,14.27
2023-04-09T06:59:52.896Z,14.70
2023-04-09T07:02:14.687Z,15.17
2023-04-09T07:04:35.909Z,14.50
2023-04-09T07:06:59.241Z,14.10
2023-04-09T07:09:20.361Z,13.10
2023-04-09T07:11:41.596Z,13.70
2023-04-09T07:14:02.821Z,13.87
2023-04-09T07:16:25.723Z,11.97
2023-04-09T07:18:47.070Z,12.90
2023-04-09T07:21:08.215Z,12.67
2023-04-09T07:23:29.698Z,13.37
2023-04-09T07:25:51.612Z,13.37
2023-04-09T07:28:12.993Z,13.17
2023-04-09T07:30:34.422Z,12.93
2023-04-09T07:32:57.074Z,13.40
2023-04-09T07:35:18.587Z,14.10
2023-04-09T07:37:39.761Z,15.33
2023-04-09T07:40:01.642Z,15.37
2023-04-09T07:42:22.867Z,14.93
2023-04-09T07:44:44.301Z,15.00
2023-04-09T07:47:05.975Z,14.97
2023-04-09T07:49:28.585Z,14.47
2023-04-09T07:51:49.588Z,15.33
2023-04-09T07:54:10.909Z,15.27
2023-04-09T07:56:32.236Z,16.17
2023-04-09T07:58:53.695Z,15.90
2023-04-09T08:01:15.273Z,15.00
2023-04-09T08:03:37.084Z,16.07
2023-04-09T08:05:59.819Z,14.40
2023-04-09T08:08:21.761Z,15.10
2023-04-09T08:10:43.155Z,14.03
2023-04-09T08:13:04.355Z,14.17
2023-04-09T08:15:25.674Z,14.27
2023-04-09T08:17:47.117Z,13.47
2023-04-09T08:20:08.941Z,13.37
2023-04-09T08:22:31.775Z,13.37
2023-04-09T08:24:53.070Z,13.00
2023-04-09T08:27:14.379Z,12.43
2023-04-09T08:29:35.900Z,13.83
2023-04-09T08:31:57.321Z,13.47
2023-04-09T08:34:21.127Z,12.87
2023-04-09T08:36:42.557Z,13.30
2023-04-09T08:39:05.502Z,12.87
2023-04-09T08:41:28.617Z,12.40
2023-04-09T08:43:57.649Z,11.30
2023-04-09T08:46:20.496Z,11.73
2023-04-09T08:48:42.592Z,11.37
2023-04-09T08:51:03.784Z,11.47
2023-04-09T08:53:25.632Z,11.43
2023-04-09T08:55:48.310Z,10.43
2023-04-09T08:58:10.541Z,12.10
2023-04-09T09:00:32.494Z,10.63
2023-04-09T09:03:03.855Z,10.97
2023-04-09T09:05:36.075Z,11.10
2023-04-09T09:07:58.213Z,11.27
2023-04-09T09:10:19.525Z,11.23
2023-04-09T09:12:43.057Z,10.33
2023-04-09T09:15:04.644Z,11.30
2023-04-09T09:17:26.226Z,9.63
2023-04-09T09:19:47.702Z,9.80
2023-04-09T09:22:09.122Z,10.43
2023-04-09T09:24:30.981Z,9.80
2023-04-09T09:26:52.043Z,10.20
2023-04-09T09:29:14.860Z,9.73
2023-04-09T09:31:47.230Z,11.17
2023-04-09T09:34:09.584Z,10.20
2023-04-09T09:36:34.393Z,10.43
2023-04-09T09:38:57.165Z,9.30
2023-04-09T09:41:19.566Z,10.10
2023-04-09T09:43:41.537Z,10.17
2023-04-09T09:46:04.636Z,10.13
2023-04-09T09:48:28.318Z,9.80
2023-04-09T09:50:50.611Z,10.10
2023-04-09T09:53:12.297Z,9.83
2023-04-09T09:55:34.170Z,9.00
2023-04-09T09:57:56.491Z,8.67
2023-04-09T10:00:19.348Z,8.27
2023-04-09T10:02:45.624Z,7.50
2023-04-09T10:05:07.658Z,7.63
2023-04-09T10:07:29.251Z,8.00
2023-04-09T10:09:50.863Z,8.27
2023-04-09T10:12:12.170Z,8.23
2023-04-09T10:14:33.722Z,8.70
2023-04-09T10:16:55.107Z,8.70
2023-04-09T10:19:17.934Z,9.00
2023-04-09T10:21:42.874Z,9.77
2023-04-09T10:24:06.154Z,9.00
2023-04-09T10:26:30.749Z,8.77
2023-04-09T10:29:05.091Z,8.10
2023-04-09T10:31:26.197Z,7.50
2023-04-09T10:33:47.494Z,7.57
2023-04-09T10:36:13.317Z,7.83
2023-04-09T10:38:35.669Z,7.53
2023-04-09T10:40:56.639Z,7.60
2023-04-09T10:43:21.100Z,6.97
2023-04-09T10:45:43.193Z,7.47
2023-04-09T10:48:04.565Z,6.73
2023-04-09T10:50:26.621Z,6.77
2023-04-09T10:52:53.012Z,7.20
2023-04-09T10:55:29.161Z,6.60
2023-04-09T10:57:50.277Z,6.27
2023-04-09T11:00:12.328Z,6.30
2023-04-09T11:02:48.535Z,6.20
2023-04-09T11:05:19.240Z,6.17
2023-04-09T11:07:42.282Z,5.93
2023-04-09T11:10:04.919Z,6.27
2023-04-09T11:12:25.974Z,6.23
2023-04-09T11:14:47.208Z,6.10
2023-04-09T11:17:08.576Z,6.23
2023-04-09T11:19:30.258Z,6.80
2023-04-09T11:21:51.309Z,7.10
2023-04-09T11:24:13.236Z,6.87
2023-04-09T11:26:37.650Z,6.87
2023-04-09T11:28:59.127Z,6.47
2023-04-09T11:31:20.401Z,6.23
2023-04-09T11:33:41.544Z,6.80
2023-04-09T11:36:03.701Z,7.03
2023-04-09T11:38:25.093Z,6.73
2023-04-09T11:40:48.497Z,6.20
2023-04-09T11:43:11.878Z,6.30
2023-04-09T11:45:33.430Z,6.07
2023-04-09T11:47:54.859Z,6.63
2023-04-09T11:50:16.561Z,6.47
2023-04-09T11:52:37.887Z,6.40
2023-04-09T11:55:01.382Z,6.33
2023-04-09T11:57:22.200Z,6.67
2023-04-09T11:59:44.581Z,6.27
2023-04-09T12:02:07.653Z,6.43
2023-04-09T12:04:29.311Z,5.93
2023-04-09T12:06:50.965Z,6.83
2023-04-09T12:09:14.114Z,6.20
2023-04-09T12:11:37.731Z,6.80
2023-04-09T12:14:02.788Z,5.73
2023-04-09T12:16:25.533Z,6.17
2023-04-09T12:18:50.580Z,7.00
2023-04-09T12:21:12.097Z,6.00
2023-04-09T12:23:33.591Z,5.50
2023-04-09T12:25:55.393Z,5.90
2023-04-09T12:28:18.297Z,5.40
2023-04-09T12:30:40.478Z,5.60
2023-04-09T12:33:03.956Z,6.37
2023-04-09T12:35:25.762Z,5.73
2023-04-09T12:37:47.540Z,5.20
2023-04-09T12:40:09.141Z,6.30
2023-04-09T12:42:30.626Z,5.70
2023-04-09T12:44:52.628Z,5.63
2023-04-09T12:47:13.994Z,4.93
2023-04-09T12:49:36.545Z,5.23
2023-04-09T12:51:57.726Z,5.00
2023-04-09T12:54:19.300Z,5.67
2023-04-09T12:56:40.433Z,5.43
2023-04-09T12:59:01.940Z,5.00
2023-04-09T13:01:22.954Z,5.40
2023-04-09T13:03:44.351Z,5.40
2023-04-09T13:06:07.571Z,5.17
2023-04-09T13:08:28.904Z,5.57
2023-04-09T13:10:50.257Z,5.60
2023-04-09T13:13:12.970Z,5.20
2023-04-09T13:15:34.228Z,5.20
2023-04-09T13:17:57.165Z,5.20
2023-04-09T13:20:18.554Z,5.63
2023-04-09T13:22:41.309Z,5.47
2023-04-09T13:25:02.396Z,5.90
2023-04-09T13:27:23.621Z,5.67
2023-04-09T13:29:45.058Z,5.97
2023-04-09T13:32:07.901Z,5.57
2023-04-09T13:34:29.238Z,5.37
2023-04-09T13:36:50.542Z,5.90
2023-04-09T13:39:13.169Z,6.00
2023-04-09T13:41:34.932Z,5.30
2023-04-09T13:43:56.195Z,5.17
2023-04-09T13:46:17.520Z,5.40
2023-04-09T13:48:38.923Z,5.97
2023-04-09T13:51:00.576Z,6.00
2023-04-09T13:53:23.782Z,5.67
2023-04-09T13:55:46.700Z,5.70
2023-04-09T13:58:08.242Z,6.60
2023-04-09T14:00:29.450Z,5.93
2023-04-09T14:02:51.064Z,6.67
2023-04-09T14:05:12.507Z,6.03
2023-04-09T14:07:33.841Z,6.20
2023-04-09T14:09:55.244Z,6.03
2023-04-09T14:12:17.842Z,7.37
2023-04-09T14:14:39.185Z,6.77
2023-04-09T14:17:00.590Z,6.73
2023-04-09T14:19:21.666Z,6.67
2023-04-09T14:21:43.280Z,7.33
2023-04-09T14:24:04.678Z,6.83
2023-04-09T14:26:26.772Z,6.67
2023-04-09T14:28:49.124Z,6.03
2023-04-09T14:31:10.558Z,5.33
2023-04-09T14:33:31.765Z,5.70
2023-04-09T14:35:53.352Z,6.00
2023-04-09T14:38:14.625Z,5.93
2023-04-09T14:40:37.132Z,5.40
2023-04-09T14:42:58.047Z,5.87
2023-04-09T14:45:20.685Z,6.03
2023-04-09T14:47:41.786Z,5.60
2023-04-09T14:50:03.016Z,5.00
2023-04-09T14:52:24.307Z,5.50
2023-04-09T14:54:46.398Z,5.30
2023-04-09T14:57:07.759Z,5.30
2023-04-09T14:59:29.187Z,4.90
2023-04-09T15:01:52.533Z,5.80
2023-04-09T15:04:14.174Z,5.67
2023-04-09T15:06:35.420Z,5.80
2023-04-09T15:08:56.672Z,5.47
2023-04-09T15:11:18.040Z,6.10
2023-04-09T15:13:39.171Z,5.87
2023-04-09T15:16:00.476Z,5.80
2023-04-09T15:18:23.299Z,5.80
2023-04-09T15:20:44.613Z,6.00
2023-04-09T15:23:06.199Z,7.00
2023-04-09T15:25:27.445Z,6.53
2023-04-09T15:27:48.613Z,6.60
2023-04-09T15:30:10.107Z,6.60
2023-04-09T15:32:32.464Z,6.37
2023-04-09T15:34:54.979Z,5.73
2023-04-09T15:37:16.335Z,6.07
2023-04-09T15:39:37.796Z,6.20
2023-04-09T15:41:59.655Z,6.17
2023-04-09T15:44:20.767Z,5.17
2023-04-09T15:46:42.091Z,5.80
2023-04-09T15:49:03.509Z,5.60
2023-04-09T15:51:27.080Z,6.10
2023-04-09T15:53:48.359Z,5.50
2023-04-09T15:56:11.619Z,5.33
2023-04-09T15:58:33.629Z,5.60
2023-04-09T16:00:55.026Z,5.00
2023-04-09T16:03:16.691Z,5.17
2023-04-09T16:05:38.004Z,5.53
2023-04-09T16:08:00.838Z,5.30
2023-04-09T16:10:22.218Z,5.63
2023-04-09T16:12:43.551Z,5.60
2023-04-09T16:15:05.160Z,5.27
2023-04-09T16:17:26.177Z,5.60
2023-04-09T16:19:48.121Z,5.60
2023-04-09T16:22:09.361Z,5.67
2023-04-09T16:24:32.377Z,5.43
2023-04-09T16:26:54.005Z,5.60
2023-04-09T16:29:16.263Z,5.30
2023-04-09T16:31:37.569Z,5.60
2023-04-09T16:33:58.868Z,4.70
2023-04-09T16:36:20.434Z,5.00
2023-04-09T16:38:41.894Z,4.70
2023-04-09T16:41:04.565Z,4.80
2023-04-09T16:43:26.169Z,5.00
2023-04-09T16:45:47.282Z,5.60
2023-04-09T16:48:12.335Z,5.67
2023-04-09T16:50:33.949Z,5.50
2023-04-09T16:52:55.229Z,5.53
2023-04-09T16:55:16.666Z,5.00
2023-04-09T16:57:39.468Z,5.03
2023-04-09T17:00:01.144Z,5.87
2023-04-09T17:02:24.459Z,5.37
2023-04-09T17:04:45.809Z,6.00
2023-04-09T17:07:07.077Z,5.70
2023-04-09T17:09:29.092Z,5.87
2023-04-09T17:11:52.894Z,5.83
2023-04-09T17:14:15.386Z,5.67
2023-04-09T17:16:38.127Z,6.30
2023-04-09T17:18:59.423Z,6.50
2023-04-09T17:21:20.692Z,6.30
2023-04-09T17:23:42.679Z,5.83
2023-04-09T17:26:04.199Z,6.33
2023-04-09T17:28:25.503Z,5.90
2023-04-09T17:30:48.401Z,6.60
2023-04-09T17:33:09.622Z,6.70
2023-04-09T17:35:31.480Z,6.90
2023-04-09T17:37:52.988Z,6.47
2023-04-09T17:40:18.438Z,7.10
2023-04-09T17:42:39.811Z,6.80
2023-04-09T17:45:00.894Z,6.37
2023-04-09T17:47:23.780Z,6.63
2023-04-09T17:49:44.823Z,6.10
2023-04-09T17:52:06.443Z,7.03
2023-04-09T17:54:27.614Z,6.90
2023-04-09T17:56:48.910Z,7.00
2023-04-09T17:59:10.241Z,6.33
2023-04-09T18:01:31.543Z,6.73
2023-04-09T18:03:54.491Z,6.43
2023-04-09T18:06:17.334Z,6.47
2023-04-09T18:08:38.683Z,6.30
2023-04-09T18:11:12.062Z,7.13
2023-04-09T18:13:34.608Z,6.73
2023-04-09T18:15:56.003Z,6.70
2023-04-09T18:18:17.506Z,6.80
2023-04-09T18:20:40.718Z,7.10
2023-04-09T18:23:01.957Z,6.40
2023-04-09T18:25:23.530Z,7.07
2023-04-09T18:27:44.972Z,7.00
2023-04-09T18:30:06.955Z,7.03
2023-04-09T18:32:28.142Z,7.20
2023-04-09T18:34:49.605Z,7.27
2023-04-09T18:37:12.441Z,7.60
2023-04-09T18:39:35.136Z,7.60
2023-04-09T18:41:57.063Z,6.87
2023-04-09T18:44:18.415Z,7.20
2023-04-09T18:46:39.956Z,7.30
2023-04-09T18:49:01.492Z,7.33
2023-04-09T18:51:22.328Z,6.73
2023-04-09T18:53:45.213Z,7.50
2023-04-09T18:56:07.192Z,7.97
2023-04-09T18:58:28.351Z,7.20
2023-04-09T19:00:51.371Z,7.70
2023-04-09T19:03:13.014Z,6.97
2023-04-09T19:05:34.721Z,7.33
2023-04-09T19:07:58.680Z,7.83
2023-04-09T19:10:21.831Z,7.50
2023-04-09T19:12:48.468Z,7.40
2023-04-09T19:15:10.591Z,8.17
2023-04-09T19:17:32.090Z,7.93
2023-04-09T19:19:53.213Z,8.13
2023-04-09T19:22:14.492Z,7.63
2023-04-09T19:24:36.099Z,7.57
2023-04-09T19:27:01.115Z,7.90
2023-04-09T19:29:22.183Z,8.00
2023-04-09T19:31:43.390Z,9.00
2023-04-09T19:34:07.208Z,7.97
2023-04-09T19:36:28.432Z,9.10
2023-04-09T19:38:50.701Z,9.00
2023-04-09T19:41:11.978Z,8.40
2023-04-09T19:43:35.099Z,8.60
2023-04-09T19:45:57.521Z,9.37
2023-04-09T19:48:18.986Z,8.63
2023-04-09T19:50:41.278Z,9.33
2023-04-09T19:53:02.310Z,8.93
2023-04-09T19:55:27.783Z,10.00
2023-04-09T19:57:49.279Z,9.87
2023-04-09T20:00:12.425Z,9.23
2023-04-09T20:02:33.870Z,8.63
2023-04-09T20:04:58.377Z,9.80
2023-04-09T20:07:20.007Z,10.00
2023-04-09T20:09:42.543Z,10.07
2023-04-09T20:12:06.984Z,9.70
2023-04-09T20:14:28.201Z,10.03
2023-04-09T20:16:50.957Z,8.90
2023-04-09T20:19:12.203Z,10.17
2023-04-09T20:21:33.722Z,9.97
2023-04-09T20:23:55.627Z,10.83
2023-04-09T20:26:16.965Z,11.37
2023-04-09T20:28:38.477Z,10.27
2023-04-09T20:31:02.994Z,10.90
2023-04-09T20:33:25.944Z,10.00
2023-04-09T20:35:48.329Z,11.30
2023-04-09T20:38:09.597Z,11.20
2023-04-09T20:40:31.404Z,12.50
2023-04-09T20:42:52.887Z,12.93
2023-04-09T20:45:13.825Z,13.57
2023-04-09T20:47:35.519Z,13.10
2023-04-09T20:50:00.195Z,13.20
2023-04-09T20:52:21.935Z,13.97
2023-04-09T20:54:43.592Z,13.20
2023-04-09T20:57:05.682Z,14.33
2023-04-09T20:59:27.757Z,13.17
2023-04-09T21:01:49.184Z,13.07
2023-04-09T21:04:10.871Z,13.30
2023-04-09T21:06:35.024Z,12.57
2023-04-09T21:08:57.439Z,12.40
2023-04-09T21:11:19.796Z,11.93
2023-04-09T21:13:54.038Z,11.70
2023-04-09T21:16:16.672Z,11.80
2023-04-09T21:18:37.905Z,13.10
2023-04-09T21:20:59.796Z,12.70
2023-04-09T21:23:25.460Z,12.50
2023-04-09T21:25:46.496Z,14.63
2023-04-09T21:28:08.133Z,14.37
2023-04-09T21:30:29.660Z,14.77
2023-04-09T21:32:51.429Z,14.00
2023-04-09T21:35:12.528Z,13.30
2023-04-09T21:37:34.456Z,13.67
2023-04-09T21:39:57.096Z,14.20
2023-04-09T21:42:18.134Z,13.50
2023-04-09T21:44:39.626Z,13.80
2023-04-09T21:47:01.578Z,14.10
2023-04-09T21:49:22.937Z,14.13
2023-04-09T21:51:46.396Z,13.57
2023-04-09T21:54:08.060Z,13.03
2023-04-09T21:56:30.806Z,13.90
2023-04-09T21:58:52.181Z,13.17
2023-04-09T22:01:22.634Z,14.50
2023-04-09T22:03:50.345Z,13.50
2023-04-09T22:06:11.508Z,14.57
2023-04-09T22:08:32.818Z,14.53
2023-04-09T22:10:54.461Z,14.43
2023-04-09T22:13:17.138Z,13.70
2023-04-09T22:15:38.247Z,14.57
2023-04-09T22:17:59.850Z,14.53
2023-04-09T22:20:21.438Z,13.70
2023-04-09T22:22:42.648Z,14.90
2023-04-09T22:25:04.295Z,13.77
2023-04-09T22:27:25.825Z,14.93
2023-04-09T22:29:48.377Z,14.37
2023-04-09T22:32:10.104Z,13.83
2023-04-09T22:34:31.214Z,14.27
2023-04-09T22:36:52.193Z,14.53
2023-04-09T22:39:13.568Z,14.33
2023-04-09T22:41:34.909Z,14.63
2023-04-09T22:43:56.254Z,14.50
2023-04-09T22:46:18.804Z,14.17
2023-04-09T22:48:44.551Z,14.60
2023-04-09T22:51:16.756Z,14.77
2023-04-09T22:53:38.098Z,14.90
2023-04-09T22:55:59.906Z,14.50
2023-04-09T22:58:21.476Z,14.47
2023-04-09T23:00:42.949Z,14.17
2023-04-09T23:03:06.047Z,14.30
2023-04-09T23:05:27.602Z,13.90
2023-04-09T23:07:48.909Z,14.53
2023-04-09T23:10:14.324Z,14.07
2023-04-09T23:12:35.807Z,13.77
2023-04-09T23:14:57.143Z,14.80
2023-04-09T23:17:20.918Z,13.90
2023-04-09T23:19:44.035Z,12.90
2023-04-09T23:22:06.880Z,13.03
2023-04-09T23:24:27.871Z,13.40
2023-04-09T23:26:49.197Z,13.83
2023-04-09T23:29:10.662Z,13.57
2023-04-09T23:31:32.082Z,13.60
2023-04-09T23:33:53.462Z,13.20
2023-04-09T23:36:16.173Z,14.10
2023-04-09T23:38:37.058Z,13.80
2023-04-09T23:40:58.273Z,14.33
2023-04-09T23:43:21.886Z,15.43
2023-04-09T23:45:44.853Z,14.67
2023-04-09T23:48:07.424Z,14.63
2023-04-09T23:50:29.125Z,15.27
2023-04-09T23:52:51.850Z,14.50
2023-04-09T23:55:12.918Z,14.00
2023-04-09T23:57:34.381Z,13.80
2023-04-09T23:59:56.004Z,14.60
